createdAt,value
2023-03-06T00:02:01.183Z,41.81
2023-03-06T00:04:27.834Z,43.29
2023-03-06T00:06:54.557Z,41.98
2023-03-06T00:09:22.352Z,42.57
2023-03-06T00:11:49.027Z,43.60
2023-03-06T00:14:15.691Z,42.80
2023-03-06T00:16:42.603Z,43.61
2023-03-06T00:19:09.254Z,44.40
2023-03-06T00:21:35.918Z,44.36
2023-03-06T00:24:02.562Z,43.30
2023-03-06T00:26:29.200Z,43.00
2023-03-06T00:28:55.906Z,42.50
2023-03-06T00:31:22.619Z,42.42
2023-03-06T00:33:49.302Z,42.62
2023-03-06T00:36:15.977Z,42.00
2023-03-06T00:38:42.608Z,42.11
2023-03-06T00:41:10.090Z,42.29
2023-03-06T00:43:36.983Z,42.57
2023-03-06T00:46:03.725Z,42.01
2023-03-06T00:48:30.356Z,42.02
2023-03-06T00:50:57.172Z,42.13
2023-03-06T00:53:23.913Z,41.38
2023-03-06T00:55:50.878Z,41.61
2023-03-06T00:58:17.639Z,42.01
2023-03-06T01:00:44.393Z,42.65
2023-03-06T01:03:11.190Z,41.53
2023-03-06T01:05:38.220Z,40.03
2023-03-06T01:08:05.308Z,39.99
2023-03-06T01:10:32.203Z,39.73
2023-03-06T01:12:58.890Z,40.84
2023-03-06T01:15:25.719Z,41.55
2023-03-06T01:17:53.383Z,41.71
2023-03-06T01:20:20.070Z,42.24
2023-03-06T01:22:46.706Z,42.09
2023-03-06T01:25:13.328Z,43.67
2023-03-06T01:27:40.120Z,43.48
2023-03-06T01:30:07.297Z,43.41
2023-03-06T01:32:33.992Z,43.29
2023-03-06T01:35:00.688Z,43.64
2023-03-06T01:37:27.322Z,43.51
2023-03-06T01:39:53.991Z,43.90
2023-03-06T01:42:20.748Z,43.62
2023-03-06T01:45:16.791Z,43.80
2023-03-06T01:47:43.498Z,43.40
2023-03-06T01:50:10.445Z,43.64
2023-03-06T01:52:42.957Z,43.52
2023-03-06T01:55:15.645Z,44.45
2023-03-06T01:57:46.916Z,43.32
2023-03-06T02:00:15.426Z,43.39
2023-03-06T02:02:43.563Z,43.33
2023-03-06T02:05:10.245Z,43.13
2023-03-06T02:07:37.200Z,43.47
2023-03-06T02:10:04.594Z,43.76
2023-03-06T02:12:31.256Z,43.31
2023-03-06T02:14:57.893Z,43.17
2023-03-06T02:17:24.639Z,43.83
2023-03-06T02:20:10.944Z,44.42
2023-03-06T02:22:46.519Z,44.28
2023-03-06T02:25:28.178Z,43.11
2023-03-06T02:27:54.860Z,43.14
2023-03-06T02:30:21.725Z,43.69
2023-03-06T02:32:48.359Z,43.55
2023-03-06T02:35:28.190Z,44.19
2023-03-06T02:37:54.839Z,44.53
2023-03-06T02:40:21.686Z,44.02
2023-03-06T02:42:49.708Z,43.77
2023-03-06T02:45:20.236Z,44.40
2023-03-06T02:47:46.854Z,44.30
2023-03-06T02:50:13.522Z,43.18
2023-03-06T02:52:40.144Z,43.78
2023-03-06T02:55:07.249Z,43.80
2023-03-06T02:57:33.882Z,44.25
2023-03-06T03:00:00.504Z,44.01
2023-03-06T03:02:27.233Z,44.06
2023-03-06T03:04:54.036Z,44.13
2023-03-06T03:07:21.847Z,42.70
2023-03-06T03:09:48.518Z,44.18
2023-03-06T03:12:15.147Z,43.82
2023-03-06T03:14:41.832Z,44.28
2023-03-06T03:17:08.443Z,43.06
2023-03-06T03:19:35.052Z,43.84
2023-03-06T03:22:01.639Z,43.85
2023-03-06T03:24:28.282Z,43.56
2023-03-06T03:26:54.932Z,43.98
2023-03-06T03:29:21.779Z,44.06
2023-03-06T03:31:48.553Z,44.05
2023-03-06T03:34:15.676Z,43.66
2023-03-06T03:36:42.386Z,42.71
2023-03-06T03:39:09.037Z,43.98
2023-03-06T03:41:35.629Z,43.76
2023-03-06T03:44:02.257Z,43.18
2023-03-06T03:46:28.969Z,43.55
2023-03-06T03:48:55.977Z,43.97
2023-03-06T03:51:22.657Z,43.35
2023-03-06T03:53:49.320Z,43.49
2023-03-06T03:56:16.097Z,43.58
2023-03-06T03:58:42.777Z,44.64
2023-03-06T04:01:09.403Z,43.68
2023-03-06T04:03:36.129Z,43.72
2023-03-06T04:06:02.862Z,44.85
2023-03-06T04:08:29.562Z,44.14
2023-03-06T04:10:56.197Z,44.12
2023-03-06T04:13:24.540Z,45.21
2023-03-06T04:15:52.087Z,45.57
2023-03-06T04:18:18.918Z,45.34
2023-03-06T04:20:45.685Z,44.71
2023-03-06T04:23:12.336Z,44.91
2023-03-06T04:25:39.014Z,45.91
2023-03-06T04:28:05.811Z,44.52
2023-03-06T04:30:32.679Z,45.22
2023-03-06T04:32:59.359Z,45.19
2023-03-06T04:35:25.986Z,43.67
2023-03-06T04:37:52.694Z,44.34
2023-03-06T04:40:21.099Z,45.08
2023-03-06T04:42:48.147Z,45.20
2023-03-06T04:45:15.253Z,44.64
2023-03-06T04:47:42.344Z,44.20
2023-03-06T04:50:09.803Z,44.45
2023-03-06T04:52:36.444Z,45.73
2023-03-06T04:55:03.408Z,44.53
2023-03-06T04:57:30.033Z,43.57
2023-03-06T04:59:56.753Z,44.38
2023-03-06T05:02:23.470Z,44.03
2023-03-06T05:04:50.138Z,44.32
2023-03-06T05:07:16.811Z,45.03
2023-03-06T05:09:43.435Z,45.18
2023-03-06T05:12:10.068Z,45.30
2023-03-06T05:14:36.684Z,45.49
2023-03-06T05:17:03.319Z,44.59
2023-03-06T05:19:30.054Z,44.68
2023-03-06T05:21:56.675Z,44.75
2023-03-06T05:24:23.309Z,45.26
2023-03-06T05:26:49.981Z,45.52
2023-03-06T05:29:16.654Z,45.61
2023-03-06T05:31:43.972Z,46.10
2023-03-06T05:34:13.468Z,45.33
2023-03-06T05:36:40.070Z,45.79
2023-03-06T05:39:07.092Z,45.22
2023-03-06T05:41:33.788Z,46.16
2023-03-06T05:44:00.377Z,46.54
2023-03-06T05:46:28.142Z,46.38
2023-03-06T05:48:54.944Z,46.62
2023-03-06T05:51:21.600Z,46.62
2023-03-06T05:53:49.613Z,46.36
2023-03-06T05:56:16.271Z,46.54
2023-03-06T05:58:42.947Z,46.48
2023-03-06T06:01:13.796Z,47.04
2023-03-06T06:03:40.603Z,45.71
2023-03-06T06:06:08.479Z,45.84
2023-03-06T06:08:35.509Z,46.88
2023-03-06T06:11:02.189Z,46.24
2023-03-06T06:13:28.798Z,47.73
2023-03-06T06:15:55.446Z,46.88
2023-03-06T06:18:22.139Z,47.23
2023-03-06T06:20:48.799Z,46.87
2023-03-06T06:23:15.483Z,46.99
2023-03-06T06:25:42.173Z,45.87
2023-03-06T06:28:08.832Z,47.91
2023-03-06T06:30:35.555Z,47.54
2023-03-06T06:33:03.203Z,48.57
2023-03-06T06:35:29.891Z,47.44
2023-03-06T06:37:56.583Z,46.73
2023-03-06T06:40:23.247Z,47.91
2023-03-06T06:42:49.972Z,48.07
2023-03-06T06:45:16.643Z,47.47
2023-03-06T06:47:43.279Z,46.42
2023-03-06T06:50:14.050Z,46.23
2023-03-06T06:52:40.740Z,47.57
2023-03-06T06:55:07.982Z,47.59
2023-03-06T06:57:34.652Z,46.97
2023-03-06T07:00:03.132Z,48.38
2023-03-06T07:02:29.804Z,47.87
2023-03-06T07:05:04.215Z,46.32
2023-03-06T07:07:34.073Z,46.65
2023-03-06T07:10:00.796Z,47.49
2023-03-06T07:12:27.443Z,47.86
2023-03-06T07:14:54.081Z,47.62
2023-03-06T07:17:20.748Z,48.55
2023-03-06T07:19:47.412Z,49.41
2023-03-06T07:22:14.085Z,48.59
2023-03-06T07:24:40.688Z,47.65
2023-03-06T07:27:08.442Z,45.72
2023-03-06T07:29:35.060Z,46.98
2023-03-06T07:32:01.757Z,46.27
2023-03-06T07:34:28.418Z,45.01
2023-03-06T07:36:55.098Z,43.76
2023-03-06T07:39:22.093Z,43.91
2023-03-06T07:41:48.714Z,43.32
2023-03-06T07:44:15.428Z,43.54
2023-03-06T07:46:42.200Z,42.51
2023-03-06T07:49:08.837Z,43.29
2023-03-06T07:51:35.802Z,42.70
2023-03-06T07:54:02.477Z,43.17
2023-03-06T07:56:29.206Z,42.14
2023-03-06T07:58:57.025Z,42.79
2023-03-06T08:01:23.751Z,43.53
2023-03-06T08:03:50.566Z,44.46
2023-03-06T08:06:21.728Z,44.85
2023-03-06T08:08:48.667Z,45.11
2023-03-06T08:11:16.194Z,45.53
2023-03-06T08:13:43.054Z,45.24
2023-03-06T08:16:10.024Z,44.89
2023-03-06T08:18:36.963Z,45.07
2023-03-06T08:21:04.939Z,45.04
2023-03-06T08:23:31.656Z,45.14
2023-03-06T08:25:59.092Z,46.24
2023-03-06T08:28:25.923Z,43.12
2023-03-06T08:30:52.587Z,42.91
2023-03-06T08:33:19.275Z,42.95
2023-03-06T08:35:45.972Z,42.74
2023-03-06T08:38:12.707Z,43.19
2023-03-06T08:40:39.337Z,43.09
2023-03-06T08:43:09.135Z,42.71
2023-03-06T08:45:35.812Z,42.03
2023-03-06T08:48:02.433Z,43.92
2023-03-06T08:50:29.377Z,43.64
2023-03-06T08:52:56.005Z,43.30
2023-03-06T08:55:22.763Z,42.88
2023-03-06T08:57:49.422Z,42.55
2023-03-06T09:00:16.850Z,42.32
2023-03-06T09:02:43.666Z,42.08
2023-03-06T09:05:10.591Z,42.56
2023-03-06T09:07:37.291Z,43.13
2023-03-06T09:10:04.114Z,43.27
2023-03-06T09:12:32.676Z,42.39
2023-03-06T09:15:04.938Z,42.31
2023-03-06T09:17:31.661Z,42.06
2023-03-06T09:19:58.378Z,41.78
2023-03-06T09:22:25.108Z,42.23
2023-03-06T09:24:51.774Z,41.70
2023-03-06T09:27:18.443Z,42.01
2023-03-06T09:29:45.112Z,42.49
2023-03-06T09:32:12.235Z,42.53
2023-03-06T09:34:38.997Z,42.24
2023-03-06T09:37:05.644Z,42.21
2023-03-06T09:39:32.338Z,42.86
2023-03-06T09:42:01.293Z,42.78
2023-03-06T09:44:32.085Z,41.19
2023-03-06T09:47:11.083Z,40.58
2023-03-06T09:49:49.649Z,41.01
2023-03-06T09:52:26.692Z,41.38
2023-03-06T09:55:14.143Z,41.02
2023-03-06T09:57:51.154Z,41.00
2023-03-06T10:00:39.767Z,41.82
2023-03-06T10:03:25.071Z,41.42
2023-03-06T10:06:02.972Z,41.22
2023-03-06T10:08:35.554Z,41.30
2023-03-06T10:11:03.774Z,41.97
2023-03-06T10:13:43.152Z,41.23
2023-03-06T10:16:27.896Z,41.46
2023-03-06T10:18:55.462Z,40.53
2023-03-06T10:21:59.212Z,42.00
2023-03-06T10:24:52.945Z,42.35
2023-03-06T10:28:12.130Z,41.35
2023-03-06T10:30:42.429Z,41.80
2023-03-06T10:33:21.237Z,41.67
2023-03-06T10:35:48.548Z,41.37
2023-03-06T10:38:22.233Z,41.60
2023-03-06T10:41:15.013Z,41.87
2023-03-06T10:43:45.885Z,42.42
2023-03-06T10:46:13.831Z,40.94
2023-03-06T10:48:42.254Z,41.37
2023-03-06T10:51:17.780Z,41.60
2023-03-06T10:53:55.091Z,42.09
2023-03-06T10:56:31.015Z,41.23
2023-03-06T10:59:19.837Z,41.94
2023-03-06T11:01:48.122Z,42.34
2023-03-06T11:04:31.608Z,41.10
2023-03-06T11:07:06.235Z,42.30
2023-03-06T11:09:33.149Z,41.68
2023-03-06T11:12:51.090Z,41.13
2023-03-06T11:15:20.160Z,40.81
2023-03-06T11:17:49.526Z,41.33
2023-03-06T11:20:24.178Z,41.02
2023-03-06T11:22:59.630Z,41.10
2023-03-06T11:25:46.031Z,39.38
2023-03-06T11:28:33.781Z,40.55
2023-03-06T11:31:06.359Z,40.03
2023-03-06T11:33:35.638Z,40.44
2023-03-06T11:36:39.723Z,40.88
2023-03-06T11:39:21.418Z,40.43
2023-03-06T11:41:56.906Z,40.12
2023-03-06T11:44:45.133Z,38.87
2023-03-06T11:47:57.139Z,38.36
2023-03-06T11:50:42.699Z,37.23
2023-03-06T11:53:33.195Z,36.96
2023-03-06T11:56:18.332Z,36.84
2023-03-06T11:59:00.649Z,38.59
2023-03-06T12:01:35.375Z,39.58
2023-03-06T12:04:20.213Z,38.70
2023-03-06T12:07:07.935Z,38.74
2023-03-06T12:09:34.510Z,38.46
2023-03-06T12:12:32.164Z,40.26
2023-03-06T12:15:04.713Z,40.34
2023-03-06T12:17:37.002Z,39.51
2023-03-06T12:20:14.150Z,40.18
2023-03-06T12:22:53.367Z,39.71
2023-03-06T12:25:31.569Z,39.80
2023-03-06T12:28:13.287Z,39.80
2023-03-06T12:31:05.629Z,40.65
2023-03-06T12:33:38.082Z,39.84
2023-03-06T12:36:29.097Z,39.37
2023-03-06T12:39:11.042Z,38.43
2023-03-06T12:41:50.289Z,39.49
2023-03-06T12:44:59.554Z,39.17
2023-03-06T12:47:27.485Z,37.39
2023-03-06T12:49:59.351Z,38.29
2023-03-06T12:52:30.509Z,38.92
2023-03-06T12:55:01.049Z,37.23
2023-03-06T12:57:27.671Z,36.27
2023-03-06T12:59:54.339Z,35.46
2023-03-06T13:02:36.092Z,34.50
2023-03-06T13:05:06.537Z,35.10
2023-03-06T13:07:35.746Z,35.22
2023-03-06T13:10:30.900Z,33.75
2023-03-06T13:13:04.127Z,35.30
2023-03-06T13:15:38.525Z,35.82
2023-03-06T13:18:37.248Z,34.07
2023-03-06T13:21:03.964Z,40.98
2023-03-06T13:23:30.472Z,36.59
2023-03-06T13:25:58.367Z,35.41
2023-03-06T13:28:25.985Z,35.28
2023-03-06T13:30:53.373Z,35.83
2023-03-06T13:33:40.151Z,36.12
2023-03-06T13:36:29.577Z,37.36
2023-03-06T13:39:23.189Z,36.35
2023-03-06T13:41:52.402Z,35.79
2023-03-06T13:44:24.821Z,36.00
2023-03-06T13:47:08.041Z,35.18
2023-03-06T13:49:34.730Z,35.67
2023-03-06T13:52:10.677Z,33.72
2023-03-06T13:54:52.700Z,33.77
2023-03-06T13:57:25.438Z,33.78
2023-03-06T14:00:13.232Z,35.26
2023-03-06T14:02:47.242Z,34.24
2023-03-06T14:05:14.583Z,33.64
2023-03-06T14:07:48.007Z,32.51
2023-03-06T14:10:14.566Z,33.68
2023-03-06T14:12:43.036Z,34.61
2023-03-06T14:15:16.538Z,34.72
2023-03-06T14:17:52.907Z,34.54
2023-03-06T14:20:19.888Z,35.33
2023-03-06T14:22:46.623Z,36.95
2023-03-06T14:25:20.671Z,34.87
2023-03-06T14:27:48.983Z,36.39
2023-03-06T14:30:19.984Z,37.29
2023-03-06T14:32:47.090Z,36.86
2023-03-06T14:35:28.383Z,38.23
2023-03-06T14:38:00.733Z,38.69
2023-03-06T14:40:40.889Z,37.76
2023-03-06T14:43:12.283Z,35.62
2023-03-06T14:45:51.325Z,34.30
2023-03-06T14:48:18.137Z,32.24
2023-03-06T14:50:51.921Z,34.21
2023-03-06T14:53:19.447Z,33.78
2023-03-06T14:55:53.957Z,29.54
2023-03-06T14:58:25.917Z,31.62
2023-03-06T15:00:52.859Z,31.86
2023-03-06T15:03:46.409Z,29.14
2023-03-06T15:06:20.785Z,24.65
2023-03-06T15:08:48.697Z,24.26
2023-03-06T15:11:15.352Z,25.50
2023-03-06T15:13:41.982Z,24.86
2023-03-06T15:16:23.650Z,25.01
2023-03-06T15:19:00.804Z,23.15
2023-03-06T15:21:35.301Z,24.43
2023-03-06T15:24:01.902Z,28.58
2023-03-06T15:26:38.366Z,26.38
2023-03-06T15:29:11.101Z,26.55
2023-03-06T15:31:39.071Z,27.50
2023-03-06T15:34:08.346Z,28.06
2023-03-06T15:36:56.044Z,25.67
2023-03-06T15:39:31.519Z,24.28
2023-03-06T15:42:20.080Z,23.33
2023-03-06T15:44:51.021Z,22.65
2023-03-06T15:47:17.626Z,21.60
2023-03-06T15:49:44.420Z,19.90
2023-03-06T15:52:11.240Z,28.39
2023-03-06T15:54:38.224Z,30.76
2023-03-06T15:57:05.807Z,26.98
2023-03-06T15:59:32.453Z,29.29
2023-03-06T16:02:02.958Z,29.37
2023-03-06T16:04:30.387Z,25.94
2023-03-06T16:06:57.036Z,22.33
2023-03-06T16:09:23.673Z,18.99
2023-03-06T16:11:50.282Z,18.32
2023-03-06T16:14:22.846Z,21.08
2023-03-06T16:16:50.704Z,24.35
2023-03-06T16:19:27.752Z,23.70
2023-03-06T16:21:55.580Z,23.37
2023-03-06T16:24:22.261Z,21.28
2023-03-06T16:26:49.981Z,18.92
2023-03-06T16:29:20.824Z,19.37
2023-03-06T16:31:47.581Z,18.73
2023-03-06T16:34:14.496Z,17.16
2023-03-06T16:36:41.212Z,16.83
2023-03-06T16:39:13.123Z,16.63
2023-03-06T16:41:39.775Z,16.42
2023-03-06T16:44:06.423Z,16.22
2023-03-06T16:46:33.136Z,15.42
2023-03-06T16:48:59.766Z,15.39
2023-03-06T16:51:26.466Z,15.34
2023-03-06T16:53:53.237Z,16.50
2023-03-06T16:56:20.102Z,16.99
2023-03-06T16:58:47.041Z,22.28
2023-03-06T17:01:17.621Z,25.58
2023-03-06T17:03:45.078Z,26.11
2023-03-06T17:06:21.324Z,23.65
2023-03-06T17:08:48.085Z,21.06
2023-03-06T17:11:14.799Z,20.63
2023-03-06T17:13:41.457Z,18.69
2023-03-06T17:16:08.911Z,17.03
2023-03-06T17:18:35.598Z,13.47
2023-03-06T17:21:02.292Z,11.67
2023-03-06T17:23:29.060Z,11.68
2023-03-06T17:26:09.718Z,12.17
2023-03-06T17:28:36.726Z,11.96
2023-03-06T17:31:10.881Z,11.90
2023-03-06T17:33:37.611Z,11.98
2023-03-06T17:36:04.470Z,12.24
2023-03-06T17:38:31.180Z,12.65
2023-03-06T17:41:02.380Z,12.52
2023-03-06T17:43:29.029Z,12.54
2023-03-06T17:45:55.665Z,11.58
2023-03-06T17:48:22.295Z,11.72
2023-03-06T17:50:57.978Z,11.82
2023-03-06T17:53:24.609Z,11.18
2023-03-06T17:55:51.256Z,12.08
2023-03-06T17:58:17.910Z,12.23
2023-03-06T18:00:44.554Z,12.44
2023-03-06T18:03:11.275Z,12.49
2023-03-06T18:05:37.991Z,11.89
2023-03-06T18:08:05.263Z,12.34
2023-03-06T18:10:31.900Z,12.68
2023-03-06T18:12:58.581Z,13.31
2023-03-06T18:15:25.299Z,13.08
2023-03-06T18:17:51.982Z,12.73
2023-03-06T18:20:20.953Z,12.60
2023-03-06T18:22:47.662Z,12.19
2023-03-06T18:25:14.261Z,12.08
2023-03-06T18:27:40.896Z,12.64
2023-03-06T18:30:08.112Z,11.72
2023-03-06T18:32:35.136Z,11.35
2023-03-06T18:35:01.851Z,11.05
2023-03-06T18:37:28.474Z,10.62
2023-03-06T18:39:55.061Z,10.13
2023-03-06T18:42:21.659Z,10.58
2023-03-06T18:44:48.280Z,10.57
2023-03-06T18:47:15.212Z,12.54
2023-03-06T18:49:44.119Z,12.61
2023-03-06T18:52:11.223Z,16.58
2023-03-06T18:54:37.960Z,11.23
2023-03-06T18:57:04.652Z,11.44
2023-03-06T18:59:31.290Z,12.02
2023-03-06T19:01:57.976Z,12.46
2023-03-06T19:04:25.510Z,12.42
2023-03-06T19:06:52.146Z,11.82
2023-03-06T19:09:18.835Z,11.73
2023-03-06T19:11:45.481Z,12.03
2023-03-06T19:14:12.582Z,11.99
2023-03-06T19:16:39.299Z,12.15
2023-03-06T19:19:06.002Z,12.31
2023-03-06T19:21:32.685Z,12.14
2023-03-06T19:23:59.416Z,12.00
2023-03-06T19:26:26.142Z,12.07
2023-03-06T19:28:53.989Z,11.96
2023-03-06T19:31:22.268Z,13.81
2023-03-06T19:33:49.234Z,12.36
2023-03-06T19:36:16.451Z,12.15
2023-03-06T19:38:43.215Z,12.76
2023-03-06T19:41:12.920Z,12.46
2023-03-06T19:43:42.703Z,12.73
2023-03-06T19:46:13.095Z,13.13
2023-03-06T19:48:40.856Z,13.40
2023-03-06T19:51:07.589Z,13.76
2023-03-06T19:53:34.503Z,13.85
2023-03-06T19:56:08.643Z,13.66
2023-03-06T19:58:35.246Z,13.44
2023-03-06T20:01:13.884Z,13.76
2023-03-06T20:03:40.636Z,13.55
2023-03-06T20:06:07.525Z,14.07
2023-03-06T20:08:34.778Z,15.43
2023-03-06T20:11:01.429Z,13.80
2023-03-06T20:13:28.056Z,14.01
2023-03-06T20:15:54.757Z,14.08
2023-03-06T20:18:21.458Z,14.57
2023-03-06T20:21:00.664Z,14.25
2023-03-06T20:23:27.488Z,14.30
2023-03-06T20:25:54.098Z,13.95
2023-03-06T20:28:21.181Z,14.19
2023-03-06T20:30:47.971Z,14.21
2023-03-06T20:33:14.589Z,14.73
2023-03-06T20:35:41.871Z,15.01
2023-03-06T20:38:09.059Z,14.77
2023-03-06T20:40:39.497Z,14.86
2023-03-06T20:43:06.282Z,14.87
2023-03-06T20:45:33.036Z,14.93
2023-03-06T20:47:59.677Z,15.60
2023-03-06T20:50:26.360Z,15.17
2023-03-06T20:52:54.449Z,14.96
2023-03-06T20:55:21.129Z,15.25
2023-03-06T20:57:51.360Z,15.49
2023-03-06T21:00:18.734Z,14.78
2023-03-06T21:02:45.489Z,14.68
2023-03-06T21:05:12.323Z,15.37
2023-03-06T21:07:39.931Z,15.47
2023-03-06T21:10:07.287Z,15.10
2023-03-06T21:12:33.928Z,15.74
2023-03-06T21:15:00.541Z,21.42
2023-03-06T21:17:27.466Z,32.47
2023-03-06T21:19:54.125Z,39.87
2023-03-06T21:22:20.741Z,17.30
2023-03-06T21:24:47.375Z,16.20
2023-03-06T21:27:14.110Z,20.94
2023-03-06T21:29:40.872Z,23.87
2023-03-06T21:32:07.778Z,34.76
2023-03-06T21:34:34.433Z,20.03
2023-03-06T21:37:01.111Z,16.31
2023-03-06T21:39:27.880Z,21.94
2023-03-06T21:41:54.572Z,21.13
2023-03-06T21:44:21.234Z,18.16
2023-03-06T21:46:47.883Z,15.65
2023-03-06T21:49:17.490Z,17.16
2023-03-06T21:51:44.243Z,15.93
2023-03-06T21:54:10.883Z,17.04
2023-03-06T21:56:37.561Z,15.76
2023-03-06T21:59:04.264Z,15.20
2023-03-06T22:01:30.938Z,13.90
2023-03-06T22:03:57.688Z,14.53
2023-03-06T22:06:25.532Z,14.92
2023-03-06T22:08:52.366Z,14.77
2023-03-06T22:11:20.193Z,14.81
2023-03-06T22:13:46.893Z,14.59
2023-03-06T22:16:13.822Z,14.99
2023-03-06T22:18:43.533Z,15.12
2023-03-06T22:21:10.860Z,14.90
2023-03-06T22:23:37.629Z,15.17
2023-03-06T22:26:05.078Z,15.34
2023-03-06T22:28:32.375Z,15.08
2023-03-06T22:31:09.822Z,14.73
2023-03-06T22:33:36.581Z,15.41
2023-03-06T22:36:04.624Z,15.02
2023-03-06T22:38:32.155Z,15.81
2023-03-06T22:40:58.882Z,15.26
2023-03-06T22:43:25.545Z,15.49
2023-03-06T22:45:52.272Z,15.83
2023-03-06T22:48:19.778Z,15.53
2023-03-06T22:50:46.568Z,15.72
2023-03-06T22:53:13.208Z,15.11
2023-03-06T22:55:39.841Z,15.48
2023-03-06T22:58:06.533Z,15.35
2023-03-06T23:00:33.242Z,15.37
2023-03-06T23:02:59.937Z,15.19
2023-03-06T23:05:29.164Z,15.93
2023-03-06T23:07:56.169Z,15.81
2023-03-06T23:10:22.830Z,15.58
2023-03-06T23:12:49.685Z,15.92
2023-03-06T23:15:16.443Z,15.89
2023-03-06T23:17:43.121Z,16.02
2023-03-06T23:20:10.561Z,15.57
2023-03-06T23:22:37.218Z,15.56
2023-03-06T23:25:04.008Z,15.76
2023-03-06T23:27:30.646Z,15.73
2023-03-06T23:29:57.317Z,18.77
2023-03-06T23:32:24.061Z,25.42
2023-03-06T23:34:50.973Z,24.96
2023-03-06T23:37:17.690Z,15.34
2023-03-06T23:39:44.369Z,14.57
2023-03-06T23:42:11.028Z,14.15
2023-03-06T23:44:37.656Z,14.10
2023-03-06T23:47:04.479Z,13.83
2023-03-06T23:49:31.165Z,13.79
2023-03-06T23:51:57.836Z,13.65
2023-03-06T23:54:24.474Z,14.02
2023-03-06T23:56:51.074Z,14.19
2023-03-06T23:59:17.726Z,14.03
